Time;durP1;ratioP1;P1;durP2;ratioP2;P2;SDS_P1;SDS_P2;PMS_P1;PMS_P2;Temp;Humidity;BMP_temperature;BMP_pressure;BME280_temperature;BME280_humidity;BME280_pressure;Samples;Min_cycle;Max_cycle;Signal;HPM_P1;HPM_P2
2021/05/09 00:01:29;;;;;;;4.57;4.18;;;11.70;99.40;;;;;;5092674;28;20249;-45
2021/05/09 00:04:01;;;;;;;6.57;3.95;;;11.70;99.40;;;;;;5092644;28;20234;-48
2021/05/09 00:06:29;;;;;;;4.50;4.05;;;11.70;99.40;;;;;;5092564;28;20230;-47
2021/05/09 00:08:56;;;;;;;4.80;4.40;;;11.60;99.30;;;;;;5092515;28;20293;-46
2021/05/09 00:11:23;;;;;;;5.22;4.47;;;11.60;99.20;;;;;;5092628;28;20633;-46
2021/05/09 00:13:50;;;;;;;4.65;4.15;;;11.60;99.20;;;;;;5092546;28;20234;-46
2021/05/09 00:16:17;;;;;;;4.05;3.65;;;11.70;99.20;;;;;;5092554;28;20206;-46
2021/05/09 00:18:45;;;;;;;5.35;3.50;;;11.70;99.20;;;;;;5092509;28;20234;-43
2021/05/09 00:21:12;;;;;;;3.60;3.30;;;11.60;99.10;;;;;;5092454;28;20206;-46
2021/05/09 00:23:39;;;;;;;4.60;3.72;;;11.60;99.10;;;;;;5092054;28;20243;-45
2021/05/09 00:26:06;;;;;;;5.28;3.75;;;11.70;99.10;;;;;;5092102;28;20325;-46
2021/05/09 00:28:34;;;;;;;4.68;4.25;;;11.70;99.00;;;;;;5092279;28;20710;-48
2021/05/09 00:31:01;;;;;;;3.85;3.45;;;11.70;99.00;;;;;;5092247;28;20724;-44
2021/05/09 00:33:28;;;;;;;5.32;4.82;;;11.70;98.90;;;;;;5092139;28;20297;-45
2021/05/09 00:35:56;;;;;;;5.18;4.00;;;11.80;98.90;;;;;;5092160;28;20209;-45
2021/05/09 00:38:23;;;;;;;6.15;3.88;;;11.70;98.90;;;;;;5091999;28;20249;-48
2021/05/09 00:40:49;;;;;;;4.78;4.10;;;11.70;99.00;;;;;;5092370;28;20234;-45
2021/05/09 00:43:17;;;;;;;5.00;4.10;;;11.60;99.00;;;;;;5092279;28;20242;-47
2021/05/09 00:45:44;;;;;;;5.57;4.50;;;11.60;99.00;;;;;;5091339;28;20257;-44
2021/05/09 00:48:11;;;;;;;4.20;3.70;;;11.60;99.40;;;;;;5092027;28;20613;-46
2021/05/09 00:50:39;;;;;;;4.10;3.72;;;11.60;99.20;;;;;;5091958;28;20293;-46
2021/05/09 00:53:08;;;;;;;4.55;4.15;;;11.60;99.20;;;;;;5091923;28;20301;-46
2021/05/09 00:55:37;;;;;;;4.38;3.90;;;11.50;99.20;;;;;;5091991;28;20203;-46
2021/05/09 00:58:06;;;;;;;4.50;4.20;;;11.50;99.30;;;;;;5092326;28;20285;-45
2021/05/09 01:00:33;;;;;;;4.20;3.83;;;11.50;99.30;;;;;;5092251;28;20238;-45
2021/05/09 01:03:03;;;;;;;4.45;4.05;;;11.50;99.30;;;;;;5091981;28;20699;-49
2021/05/09 01:05:31;;;;;;;5.88;4.20;;;11.50;99.30;;;;;;5091801;28;20279;-47
2021/05/09 01:07:58;;;;;;;4.10;3.70;;;11.50;99.20;;;;;;5091723;28;20252;-45
2021/05/09 01:10:26;;;;;;;4.75;3.95;;;11.50;99.20;;;;;;5092174;28;20241;-45
2021/05/09 01:12:53;;;;;;;4.85;4.40;;;11.50;99.20;;;;;;5092142;28;20280;-49
2021/05/09 01:15:21;;;;;;;3.70;3.40;;;11.50;99.20;;;;;;5091961;28;20343;-49
2021/05/09 01:17:48;;;;;;;4.57;4.18;;;11.40;99.30;;;;;;5091901;28;20210;-49
2021/05/09 01:20:38;;;;;;;4.15;3.75;;;11.40;99.30;;;;;;5091988;28;20248;-48
2021/05/09 01:23:06;;;;;;;4.20;3.90;;;11.40;99.40;;;;;;5091978;28;20219;-46
2021/05/09 01:25:33;;;;;;;5.30;3.80;;;11.40;99.30;;;;;;5091731;28;20250;-47
2021/05/09 01:28:00;;;;;;;4.00;3.65;;;11.40;99.30;;;;;;5091637;28;20306;-48
2021/05/09 01:30:27;;;;;;;4.63;3.55;;;11.40;99.30;;;;;;5091691;28;20320;-47
2021/05/09 01:32:54;;;;;;;3.20;2.90;;;11.40;99.30;;;;;;5091688;28;20684;-46
2021/05/09 01:35:22;;;;;;;3.88;3.15;;;11.40;99.20;;;;;;5091796;28;20245;-51
2021/05/09 01:37:50;;;;;;;5.13;3.88;;;11.40;99.20;;;;;;5091801;28;20289;-48
2021/05/09 01:40:17;;;;;;;3.55;3.03;;;11.40;99.20;;;;;;5091797;28;20214;-50
2021/05/09 01:42:44;;;;;;;3.08;2.78;;;11.40;99.20;;;;;;5091579;28;20243;-45
2021/05/09 01:45:12;;;;;;;5.00;4.50;;;11.40;99.30;;;;;;5091867;28;20241;-43
2021/05/09 01:47:39;;;;;;;3.08;2.72;;;11.40;99.20;;;;;;5091664;28;20235;-45
2021/05/09 01:50:09;;;;;;;4.50;3.22;;;11.40;99.20;;;;;;5091785;28;20363;-42
2021/05/09 01:52:37;;;;;;;3.63;3.33;;;11.30;99.20;;;;;;5091658;28;20740;-44
2021/05/09 01:55:06;;;;;;;3.95;3.40;;;11.30;99.20;;;;;;5091698;28;20297;-44
2021/05/09 01:57:33;;;;;;;3.65;3.35;;;11.30;99.30;;;;;;5094188;28;20744;-46
2021/05/09 02:00:00;;;;;;;4.32;3.22;;;11.30;99.30;;;;;;5095630;28;20298;-45
2021/05/09 02:02:27;;;;;;;3.78;3.22;;;11.20;99.40;;;;;;5095565;28;20616;-44
2021/05/09 02:04:55;;;;;;;4.93;3.42;;;11.20;99.40;;;;;;5095008;28;20699;-44
2021/05/09 02:07:22;;;;;;;3.88;3.22;;;11.20;99.50;;;;;;5095032;28;20739;-44
2021/05/09 02:09:49;;;;;;;3.42;3.13;;;11.20;99.50;;;;;;5095216;28;20229;-43
2021/05/09 02:12:17;;;;;;;3.38;2.85;;;11.20;99.50;;;;;;5095213;28;20289;-48
2021/05/09 02:14:44;;;;;;;3.25;2.95;;;11.10;99.50;;;;;;5095101;28;20209;-46
2021/05/09 02:17:11;;;;;;;3.10;2.80;;;11.10;99.40;;;;;;5095003;28;20263;-48
2021/05/09 02:19:38;;;;;;;3.80;3.08;;;11.10;99.50;;;;;;5094866;28;20211;-46
2021/05/09 02:22:05;;;;;;;3.75;3.38;;;11.10;99.50;;;;;;5095058;28;20214;-45
2021/05/09 02:24:32;;;;;;;3.92;3.30;;;11.00;99.70;;;;;;5094455;28;20298;-45
2021/05/09 02:27:00;;;;;;;3.45;3.15;;;10.80;99.90;;;;;;5094985;28;20231;-48
2021/05/09 02:29:27;;;;;;;3.58;3.15;;;10.80;99.90;;;;;;5094778;28;20681;-49
2021/05/09 02:31:54;;;;;;;2.90;2.70;;;10.70;99.90;;;;;;5094680;28;20297;-48
2021/05/09 02:34:21;;;;;;;3.33;3.03;;;10.70;99.90;;;;;;5094671;28;20207;-45
2021/05/09 02:36:48;;;;;;;3.70;3.05;;;10.70;99.90;;;;;;5094703;28;20204;-45
2021/05/09 02:39:16;;;;;;;2.75;2.55;;;10.60;99.90;;;;;;5094538;28;20202;-49
2021/05/09 02:41:43;;;;;;;2.90;2.70;;;10.60;99.90;;;;;;5094531;28;20687;-47
2021/05/09 02:44:11;;;;;;;3.55;2.92;;;10.70;99.90;;;;;;5094566;28;20699;-45
2021/05/09 02:46:38;;;;;;;3.67;3.08;;;10.70;99.90;;;;;;5094271;28;20313;-47
2021/05/09 02:49:06;;;;;;;3.28;2.97;;;10.70;99.90;;;;;;5094415;28;20203;-46
2021/05/09 02:51:33;;;;;;;3.65;2.97;;;10.80;99.90;;;;;;5094238;28;20211;-46
2021/05/09 02:54:00;;;;;;;3.03;2.55;;;10.80;99.90;;;;;;5094324;28;20293;-44
2021/05/09 02:56:27;;;;;;;3.38;3.08;;;10.80;99.90;;;;;;5094301;28;20224;-47
2021/05/09 02:58:54;;;;;;;3.95;3.00;;;10.80;99.90;;;;;;5094272;28;20246;-46
2021/05/09 03:01:21;;;;;;;3.20;2.95;;;10.80;99.90;;;;;;5094268;28;20299;-44
2021/05/09 03:03:49;;;;;;;3.28;3.08;;;10.80;99.90;;;;;;5094477;28;20219;-47
2021/05/09 03:06:16;;;;;;;6.35;3.40;;;10.80;99.90;;;;;;5094302;28;20237;-48
2021/05/09 03:08:43;;;;;;;3.17;2.88;;;10.80;99.90;;;;;;5093389;28;20605;-46
2021/05/09 03:11:10;;;;;;;3.17;2.88;;;10.70;99.90;;;;;;5094159;28;20216;-47
2021/05/09 03:13:37;;;;;;;3.67;3.38;;;10.70;99.90;;;;;;5094142;28;20210;-44
2021/05/09 03:16:05;;;;;;;3.58;3.22;;;10.60;99.90;;;;;;5093810;28;20238;-44
2021/05/09 03:18:32;;;;;;;3.33;3.03;;;10.60;99.90;;;;;;5093877;28;20213;-47
2021/05/09 03:21:00;;;;;;;4.43;3.53;;;10.50;99.90;;;;;;5093839;28;20602;-44
2021/05/09 03:23:27;;;;;;;4.85;3.00;;;10.50;99.90;;;;;;5093766;28;20214;-48
2021/05/09 03:25:54;;;;;;;4.03;3.38;;;10.40;99.90;;;;;;5093860;28;20283;-49
2021/05/09 03:28:21;;;;;;;3.47;3.17;;;10.40;99.90;;;;;;5093539;28;20219;-47
2021/05/09 03:30:48;;;;;;;3.50;3.17;;;10.40;99.90;;;;;;5093447;28;20301;-45
2021/05/09 03:33:15;;;;;;;3.50;3.05;;;10.30;99.90;;;;;;5093506;28;20203;-47
2021/05/09 03:35:42;;;;;;;3.03;2.83;;;10.30;99.90;;;;;;5093799;28;20619;-46
2021/05/09 03:38:10;;;;;;;3.22;2.95;;;10.30;99.90;;;;;;5093427;28;20289;-45
2021/05/09 03:40:40;;;;;;;3.47;2.97;;;10.30;99.90;;;;;;5093537;28;20293;-45
2021/05/09 03:43:07;;;;;;;4.15;2.60;;;10.30;99.90;;;;;;5093470;28;20275;-45
2021/05/09 03:45:34;;;;;;;3.20;2.50;;;10.30;99.90;;;;;;5093423;28;20562;-45
2021/05/09 03:48:02;;;;;;;3.42;2.85;;;10.30;99.90;;;;;;5093541;28;20239;-48
2021/05/09 03:50:29;;;;;;;3.85;2.80;;;10.30;99.90;;;;;;5093202;28;20242;-46
2021/05/09 03:52:56;;;;;;;3.08;2.85;;;10.30;99.90;;;;;;5093371;28;20253;-46
2021/05/09 03:55:24;;;;;;;3.53;2.28;;;10.30;99.90;;;;;;5093282;28;20301;-44
2021/05/09 03:57:51;;;;;;;2.63;2.42;;;10.30;99.90;;;;;;5092957;28;20289;-46
2021/05/09 04:00:19;;;;;;;2.88;2.53;;;10.30;99.90;;;;;;5092942;28;20546;-50
2021/05/09 04:02:45;;;;;;;2.42;2.22;;;10.30;99.90;;;;;;5092810;28;20293;-45
2021/05/09 04:05:13;;;;;;;2.47;2.30;;;10.30;99.90;;;;;;5092831;28;20405;-44
2021/05/09 04:07:40;;;;;;;2.55;2.35;;;10.30;99.90;;;;;;5092703;28;20322;-48
2021/05/09 04:10:08;;;;;;;3.33;2.53;;;10.40;99.90;;;;;;5092861;28;20211;-45
2021/05/09 04:12:36;;;;;;;3.83;2.30;;;10.40;99.90;;;;;;5092808;28;20215;-46
2021/05/09 04:15:04;;;;;;;3.33;2.63;;;10.40;99.90;;;;;;5092830;28;20217;-43
2021/05/09 04:17:31;;;;;;;2.72;2.40;;;10.40;99.90;;;;;;5092938;28;20283;-44
2021/05/09 04:19:58;;;;;;;2.67;2.40;;;10.50;99.90;;;;;;5091741;28;20222;-43
2021/05/09 04:22:25;;;;;;;3.00;2.70;;;10.50;99.90;;;;;;5092778;28;20301;-45
2021/05/09 04:24:52;;;;;;;3.35;2.75;;;10.60;99.90;;;;;;5092532;28;20242;-45
2021/05/09 04:27:18;;;;;;;3.85;2.67;;;10.70;99.90;;;;;;5092327;28;20314;-46
2021/05/09 04:29:46;;;;;;;2.55;2.40;;;10.70;99.90;;;;;;5092748;28;20214;-43
2021/05/09 04:32:13;;;;;;;2.78;2.58;;;10.70;99.90;;;;;;5092442;28;20296;-47
2021/05/09 04:34:40;;;;;;;2.30;2.10;;;10.80;99.90;;;;;;5092367;28;20238;-48
2021/05/09 04:37:07;;;;;;;2.95;2.75;;;10.80;99.90;;;;;;5092181;28;20291;-45
2021/05/09 04:39:34;;;;;;;3.03;2.80;;;10.90;99.90;;;;;;5092238;28;20242;-46
2021/05/09 04:42:01;;;;;;;2.53;2.20;;;11.00;99.90;;;;;;5091871;28;20206;-43
2021/05/09 04:44:28;;;;;;;3.65;3.35;;;11.10;99.90;;;;;;5092601;28;20558;-49
2021/05/09 04:46:56;;;;;;;5.03;3.72;;;11.20;99.90;;;;;;5092410;28;20593;-47
2021/05/09 04:49:23;;;;;;;3.80;2.80;;;11.30;99.90;;;;;;5092453;28;20371;-44
2021/05/09 04:51:50;;;;;;;3.55;2.50;;;11.40;99.90;;;;;;5092087;28;20634;-47
2021/05/09 04:54:16;;;;;;;2.58;2.20;;;11.50;99.90;;;;;;5092216;28;20514;-45
2021/05/09 04:56:43;;;;;;;2.13;1.92;;;11.60;99.80;;;;;;5092058;28;20214;-51
2021/05/09 04:59:10;;;;;;;2.13;1.92;;;11.80;99.60;;;;;;5092270;28;20306;-53
2021/05/09 05:01:37;;;;;;;2.65;2.45;;;11.90;99.30;;;;;;5092292;28;20305;-51
2021/05/09 05:04:06;;;;;;;2.47;2.28;;;12.10;99.00;;;;;;5092220;28;20253;-50
2021/05/09 05:06:33;;;;;;;2.83;2.53;;;12.20;98.70;;;;;;5092065;28;20233;-48
2021/05/09 05:09:00;;;;;;;2.72;2.47;;;12.30;98.40;;;;;;5091984;28;20208;-53
2021/05/09 05:11:27;;;;;;;2.15;1.90;;;12.50;98.20;;;;;;5092382;28;20230;-50
2021/05/09 05:13:54;;;;;;;5.00;1.92;;;12.60;98.00;;;;;;5092083;28;20294;-45
2021/05/09 05:16:22;;;;;;;2.92;2.50;;;12.70;97.80;;;;;;5091760;28;20607;-46
2021/05/09 05:18:49;;;;;;;4.43;2.05;;;12.80;97.60;;;;;;5091925;28;20214;-52
2021/05/09 05:21:17;;;;;;;3.28;1.88;;;12.90;97.30;;;;;;5091764;28;20245;-49
2021/05/09 05:23:44;;;;;;;1.98;1.75;;;13.00;97.10;;;;;;5091625;28;20807;-48
2021/05/09 05:26:10;;;;;;;1.45;1.35;;;13.10;96.80;;;;;;5091887;28;20230;-46
2021/05/09 05:28:37;;;;;;;1.73;1.63;;;13.20;96.60;;;;;;5091845;28;20256;-44
2021/05/09 05:31:04;;;;;;;3.42;1.70;;;13.30;96.30;;;;;;5092380;28;20208;-45
2021/05/09 05:33:33;;;;;;;2.55;1.50;;;13.50;96.00;;;;;;5096134;28;20211;-45
2021/05/09 05:36:01;;;;;;;2.15;1.90;;;13.50;95.70;;;;;;5095777;28;20301;-44
2021/05/09 05:38:29;;;;;;;1.90;1.60;;;13.70;95.60;;;;;;5096008;28;20301;-51
2021/05/09 05:40:57;;;;;;;2.22;1.60;;;13.80;95.30;;;;;;5096180;28;20303;-48
2021/05/09 05:43:27;;;;;;;2.00;1.60;;;13.90;95.10;;;;;;5095756;28;20280;-45
2021/05/09 05:45:56;;;;;;;2.13;1.48;;;14.00;94.90;;;;;;5095614;28;20752;-48
2021/05/09 05:48:23;;;;;;;3.90;1.80;;;14.10;94.60;;;;;;5095348;28;20439;-45
2021/05/09 05:50:51;;;;;;;2.22;1.55;;;14.20;94.30;;;;;;5095521;28;20759;-47
2021/05/09 05:53:18;;;;;;;1.58;1.48;;;14.40;94.00;;;;;;5095196;28;20305;-47
2021/05/09 05:55:47;;;;;;;3.63;1.45;;;14.50;93.70;;;;;;5095211;28;20207;-48
2021/05/09 05:58:14;;;;;;;1.38;1.27;;;14.60;93.40;;;;;;5095570;28;20205;-45
2021/05/09 06:00:42;;;;;;;2.25;1.30;;;14.80;93.10;;;;;;5095447;28;20216;-49
2021/05/09 06:03:09;;;;;;;2.13;1.13;;;14.90;92.80;;;;;;5094984;28;20297;-45
2021/05/09 06:05:36;;;;;;;2.13;1.35;;;15.00;92.50;;;;;;5095323;28;20242;-48
2021/05/09 06:08:05;;;;;;;1.83;1.25;;;15.20;92.30;;;;;;5095267;28;20226;-46
2021/05/09 06:10:32;;;;;;;1.10;0.88;;;15.20;92.00;;;;;;5095004;28;20250;-49
2021/05/09 06:13:00;;;;;;;1.50;1.02;;;15.40;91.80;;;;;;5095103;28;20301;-46
2021/05/09 06:15:28;;;;;;;1.60;1.30;;;15.50;91.70;;;;;;5095009;28;20294;-45
2021/05/09 06:17:56;;;;;;;2.65;1.45;;;15.60;91.10;;;;;;5094727;28;20285;-44
2021/05/09 06:20:23;;;;;;;1.48;1.33;;;15.80;90.80;;;;;;5094712;28;20309;-44
2021/05/09 06:22:54;;;;;;;1.55;1.15;;;15.90;90.60;;;;;;5094562;28;20359;-47
2021/05/09 06:25:21;;;;;;;1.00;0.90;;;16.00;90.20;;;;;;5094720;28;20330;-45
2021/05/09 06:27:48;;;;;;;1.73;1.05;;;16.10;89.70;;;;;;5094497;28;20772;-47
2021/05/09 06:30:17;;;;;;;1.30;1.20;;;16.20;89.10;;;;;;5094492;28;20207;-51
2021/05/09 06:32:44;;;;;;;1.15;1.05;;;16.20;88.60;;;;;;5094308;28;20516;-50
2021/05/09 06:35:11;;;;;;;1.45;1.30;;;16.30;88.20;;;;;;5094415;28;20584;-49
2021/05/09 06:37:39;;;;;;;2.45;1.33;;;16.50;87.40;;;;;;5094443;28;20282;-51
2021/05/09 06:40:07;;;;;;;1.30;0.90;;;16.60;86.70;;;;;;5094445;28;20297;-46
2021/05/09 06:42:34;;;;;;;1.08;0.98;;;16.70;86.00;;;;;;5093262;28;20202;-49
2021/05/09 06:45:05;;;;;;;1.10;1.02;;;16.80;85.60;;;;;;5093833;28;20217;-46
2021/05/09 06:47:35;;;;;;;2.22;1.20;;;16.90;84.90;;;;;;5094253;28;20233;-50
2021/05/09 06:50:02;;;;;;;1.70;1.08;;;17.00;84.10;;;;;;5094183;28;20579;-48
2021/05/09 06:52:29;;;;;;;1.17;0.93;;;17.20;83.60;;;;;;5094330;28;20234;-49
2021/05/09 06:54:56;;;;;;;1.52;0.93;;;17.30;82.90;;;;;;5094315;28;20211;-51
2021/05/09 06:57:23;;;;;;;2.35;1.35;;;17.40;82.30;;;;;;5093902;28;20242;-49
2021/05/09 06:59:50;;;;;;;1.95;1.65;;;17.40;82.10;;;;;;5093977;28;20661;-48
2021/05/09 07:02:17;;;;;;;1.88;1.10;;;17.50;81.80;;;;;;5094234;28;20289;-46
2021/05/09 07:04:45;;;;;;;1.10;1.00;;;17.60;81.30;;;;;;5094048;28;20210;-46
2021/05/09 07:07:12;;;;;;;0.82;0.68;;;17.80;80.80;;;;;;5093778;28;20761;-48
2021/05/09 07:09:39;;;;;;;2.33;1.10;;;17.90;80.20;;;;;;5093901;28;20289;-48
2021/05/09 07:12:07;;;;;;;1.00;0.90;;;18.00;79.40;;;;;;5093711;28;20210;-45
2021/05/09 07:14:34;;;;;;;0.90;0.80;;;18.20;79.00;;;;;;5093731;28;20736;-46
2021/05/09 07:17:02;;;;;;;1.30;0.90;;;18.20;78.40;;;;;;5093777;28;20234;-43
2021/05/09 07:19:29;;;;;;;0.98;0.73;;;18.40;78.00;;;;;;5093960;28;20206;-47
2021/05/09 07:21:59;;;;;;;1.23;0.90;;;18.50;77.30;;;;;;5093520;28;20206;-48
2021/05/09 07:24:26;;;;;;;1.67;1.30;;;18.60;76.30;;;;;;5093316;28;20345;-48
2021/05/09 07:26:53;;;;;;;1.02;0.93;;;18.70;76.00;;;;;;5093691;28;20325;-46
2021/05/09 07:29:20;;;;;;;1.30;1.00;;;18.80;75.80;;;;;;5093605;28;20247;-44
2021/05/09 07:31:47;;;;;;;1.10;1.00;;;18.80;75.50;;;;;;5093520;28;20297;-46
2021/05/09 07:34:14;;;;;;;2.55;0.98;;;18.90;75.20;;;;;;5093582;28;20214;-43
2021/05/09 07:36:42;;;;;;;2.00;1.50;;;19.00;74.60;;;;;;5093324;28;20289;-47
2021/05/09 07:39:10;;;;;;;1.65;1.55;;;19.10;74.60;;;;;;5093151;28;20297;-46
2021/05/09 07:41:37;;;;;;;2.72;1.00;;;19.20;74.30;;;;;;5093596;28;20242;-46
2021/05/09 07:44:06;;;;;;;1.33;1.20;;;19.30;73.90;;;;;;5093532;28;20294;-45
2021/05/09 07:46:33;;;;;;;2.03;1.50;;;19.50;73.30;;;;;;5093180;28;20234;-48
2021/05/09 07:49:00;;;;;;;2.20;0.73;;;19.60;73.00;;;;;;5093144;28;20683;-50
2021/05/09 07:51:27;;;;;;;0.90;0.80;;;19.70;72.10;;;;;;5092891;28;20561;-45
2021/05/09 07:53:54;;;;;;;1.50;1.02;;;19.80;71.70;;;;;;5093141;28;20276;-46
2021/05/09 07:56:22;;;;;;;2.83;2.20;;;19.90;70.90;;;;;;5093075;28;20218;-48
2021/05/09 07:58:49;;;;;;;1.60;1.35;;;20.00;70.30;;;;;;5093249;28;20203;-45
2021/05/09 08:01:15;;;;;;;1.38;1.10;;;20.10;69.80;;;;;;5092891;28;20234;-45
2021/05/09 08:03:42;;;;;;;1.15;1.05;;;20.20;69.30;;;;;;5092807;28;20229;-44
2021/05/09 08:06:10;;;;;;;1.45;0.90;;;20.30;69.00;;;;;;5092647;28;20206;-49
2021/05/09 08:08:38;;;;;;;1.60;1.50;;;20.40;68.60;;;;;;5092938;28;20641;-42
2021/05/09 08:11:05;;;;;;;1.38;1.27;;;20.50;68.50;;;;;;5093129;28;20210;-44
2021/05/09 08:13:33;;;;;;;2.03;1.27;;;20.60;68.60;;;;;;5092851;28;20253;-46
2021/05/09 08:16:00;;;;;;;1.00;0.75;;;20.70;68.90;;;;;;5092738;28;20206;-44
2021/05/09 08:18:27;;;;;;;1.70;1.27;;;20.80;69.30;;;;;;5092758;28;20331;-47
2021/05/09 08:20:56;;;;;;;1.27;1.17;;;20.90;69.60;;;;;;5092691;28;20280;-45
2021/05/09 08:23:23;;;;;;;1.33;0.88;;;21.10;69.80;;;;;;5092690;28;20285;-46
2021/05/09 08:25:50;;;;;;;1.92;1.10;;;21.20;69.90;;;;;;5092770;28;20228;-44
2021/05/09 08:28:18;;;;;;;1.00;0.90;;;21.20;69.90;;;;;;5092438;28;20588;-44
2021/05/09 08:30:46;;;;;;;1.45;1.13;;;21.30;70.00;;;;;;5092748;28;20242;-44
2021/05/09 08:33:13;;;;;;;1.58;0.90;;;21.40;70.20;;;;;;5092485;28;20508;-45
2021/05/09 08:35:40;;;;;;;1.08;1.00;;;21.50;70.00;;;;;;5092698;28;20217;-45
2021/05/09 08:38:07;;;;;;;3.90;1.10;;;21.50;69.70;;;;;;5092546;28;20238;-44
2021/05/09 08:40:38;;;;;;;1.10;0.80;;;21.60;69.70;;;;;;5092613;28;20240;-46
2021/05/09 08:43:05;;;;;;;0.82;0.82;;;21.70;69.80;;;;;;5092302;28;20360;-51
2021/05/09 08:45:32;;;;;;;1.35;1.10;;;21.80;69.90;;;;;;5091999;28;20293;-49
2021/05/09 08:48:01;;;;;;;1.20;1.10;;;21.80;70.00;;;;;;5092206;28;20262;-47
2021/05/09 08:50:28;;;;;;;1.33;1.23;;;21.90;70.30;;;;;;5092268;28;20253;-50
2021/05/09 08:52:55;;;;;;;1.02;0.90;;;22.00;70.30;;;;;;5092383;28;20217;-47
2021/05/09 08:55:26;;;;;;;1.55;0.70;;;22.10;70.30;;;;;;5092333;28;20663;-50
2021/05/09 08:57:54;;;;;;;2.97;1.08;;;22.20;70.30;;;;;;5092247;28;20761;-53
2021/05/09 09:00:24;;;;;;;0.77;0.77;;;22.40;70.20;;;;;;5092054;28;20290;-49
2021/05/09 09:02:57;;;;;;;1.02;0.93;;;22.50;69.10;;;;;;5092050;28;20206;-48
2021/05/09 09:05:35;;;;;;;1.38;1.27;;;22.60;68.30;;;;;;5092190;28;20336;-49
2021/05/09 09:08:04;;;;;;;1.10;1.05;;;22.70;67.60;;;;;;5095875;28;20688;-48
2021/05/09 09:10:37;;;;;;;0.80;0.80;;;22.80;67.50;;;;;;5096301;28;20637;-48
2021/05/09 09:13:19;;;;;;;1.23;0.90;;;22.90;67.20;;;;;;5096208;28;20241;-47
2021/05/09 09:15:54;;;;;;;1.33;1.00;;;23.00;66.90;;;;;;5096336;28;20255;-52
2021/05/09 09:18:28;;;;;;;2.08;1.23;;;23.00;66.50;;;;;;5096307;28;20631;-48
2021/05/09 09:20:56;;;;;;;3.92;1.50;;;23.20;65.90;;;;;;5096177;28;20249;-45
2021/05/09 09:23:24;;;;;;;1.65;1.35;;;23.30;65.50;;;;;;5095870;28;20214;-50
2021/05/09 09:25:51;;;;;;;1.60;1.25;;;23.30;64.70;;;;;;5096184;28;20210;-50
2021/05/09 09:28:20;;;;;;;1.33;1.00;;;23.40;64.40;;;;;;5095849;28;20291;-52
2021/05/09 09:30:53;;;;;;;1.23;1.13;;;23.50;64.40;;;;;;5095938;28;20245;-48
2021/05/09 09:33:21;;;;;;;1.35;1.10;;;23.60;63.50;;;;;;5096229;28;20210;-51
2021/05/09 09:35:50;;;;;;;1.50;1.40;;;23.80;63.00;;;;;;5095765;28;20306;-54
2021/05/09 09:38:27;;;;;;;2.33;1.30;;;23.90;62.50;;;;;;5096014;28;20302;-53
2021/05/09 09:41:07;;;;;;;1.92;1.70;;;23.90;61.70;;;;;;5095453;28;20743;-55
2021/05/09 09:43:35;;;;;;;6.22;1.48;;;24.00;62.10;;;;;;5095500;28;20240;-56
2021/05/09 09:46:03;;;;;;;1.83;1.73;;;24.00;62.00;;;;;;5095451;28;20206;-54
2021/05/09 09:48:38;;;;;;;1.13;1.00;;;24.20;62.10;;;;;;5095446;28;20770;-53
2021/05/09 09:51:05;;;;;;;1.55;1.45;;;24.30;61.80;;;;;;5095786;28;20210;-54
2021/05/09 09:53:35;;;;;;;0.80;0.80;;;24.30;61.40;;;;;;5095441;28;20253;-50
2021/05/09 09:56:05;;;;;;;3.55;1.60;;;24.40;61.30;;;;;;5095473;28;20582;-45
2021/05/09 09:58:42;;;;;;;4.28;1.58;;;24.50;61.60;;;;;;5095306;28;20206;-51
2021/05/09 10:01:10;;;;;;;3.25;1.30;;;24.60;62.30;;;;;;5095396;28;20297;-49
2021/05/09 10:03:37;;;;;;;1.90;1.13;;;24.60;62.10;;;;;;5095452;28;20267;-47
2021/05/09 10:06:05;;;;;;;4.00;2.03;;;24.60;61.70;;;;;;5095320;28;20210;-49
2021/05/09 10:08:36;;;;;;;3.78;2.00;;;24.60;61.40;;;;;;5095152;28;20235;-48
2021/05/09 10:11:05;;;;;;;1.38;1.27;;;24.70;61.80;;;;;;5095126;28;20210;-48
2021/05/09 10:13:32;;;;;;;1.70;1.50;;;24.70;61.60;;;;;;5095209;28;20234;-47
2021/05/09 10:16:00;;;;;;;5.30;1.50;;;24.80;61.90;;;;;;5094888;28;20221;-45
2021/05/09 10:18:28;;;;;;;1.80;1.10;;;24.80;62.50;;;;;;5095046;28;20249;-46
2021/05/09 10:20:56;;;;;;;2.10;2.00;;;24.80;62.70;;;;;;5094871;28;20203;-45
2021/05/09 10:23:24;;;;;;;1.60;1.50;;;24.80;62.90;;;;;;5094616;28;20203;-47
2021/05/09 10:25:54;;;;;;;2.28;1.45;;;24.80;63.00;;;;;;5094722;28;20293;-45
2021/05/09 10:28:24;;;;;;;1.52;1.30;;;24.80;62.50;;;;;;5094644;28;20276;-45
2021/05/09 10:30:53;;;;;;;1.33;0.98;;;24.80;62.20;;;;;;5094359;28;20737;-46
2021/05/09 10:33:46;;;;;;;2.38;1.05;;;24.90;61.70;;;;;;5094468;28;20796;-47
2021/05/09 10:36:37;;;;;;;1.15;1.08;;;24.90;61.20;;;;;;5094332;28;20598;-46
2021/05/09 10:39:12;;;;;;;1.50;1.23;;;25.00;60.50;;;;;;5094644;28;20551;-46
2021/05/09 10:42:16;;;;;;;1.98;1.40;;;25.00;60.20;;;;;;5094669;28;20234;-47
2021/05/09 10:44:46;;;;;;;3.60;1.10;;;25.10;60.10;;;;;;5094740;28;20263;-47
2021/05/09 10:47:17;;;;;;;2.10;0.93;;;25.10;60.00;;;;;;5094503;28;20314;-50
2021/05/09 10:50:21;;;;;;;3.28;2.95;;;25.10;60.00;;;;;;5094486;28;20238;-52
2021/05/09 10:52:49;;;;;;;2.40;1.50;;;25.20;59.50;;;;;;5094174;28;20206;-50
2021/05/09 10:55:39;;;;;;;2.42;1.90;;;25.20;59.50;;;;;;5094427;28;20293;-49
2021/05/09 10:58:07;;;;;;;1.42;1.27;;;25.30;58.50;;;;;;5093782;28;20702;-53
2021/05/09 11:01:14;;;;;;;2.03;1.83;;;25.30;58.70;;;;;;5094191;28;20207;-56
2021/05/09 11:03:50;;;;;;;3.15;2.35;;;25.40;57.80;;;;;;5088518;28;20294;-52
2021/05/09 11:06:19;;;;;;;6.85;6.25;;;25.50;57.90;;;;;;5094027;28;20284;-54
2021/05/09 11:08:57;;;;;;;4.00;3.60;;;25.60;57.80;;;;;;5093742;28;20226;-55
2021/05/09 11:11:55;;;;;;;5.00;4.43;;;25.60;57.10;;;;;;5093583;28;20207;-54
2021/05/09 11:14:23;;;;;;;3.58;2.45;;;25.70;57.40;;;;;;5093602;28;20297;-55
2021/05/09 11:17:01;;;;;;;24.30;21.73;;;25.70;56.90;;;;;;5093769;28;20760;-56
2021/05/09 11:19:44;;;;;;;3.17;2.88;;;25.70;56.70;;;;;;5093814;28;20213;-54
2021/05/09 11:22:12;;;;;;;2.30;2.08;;;25.80;55.60;;;;;;5093824;28;20210;-56
2021/05/09 11:24:40;;;;;;;2.97;1.17;;;25.90;54.70;;;;;;5093499;28;20313;-51
2021/05/09 11:27:10;;;;;;;3.90;2.00;;;25.90;53.70;;;;;;5093483;28;20206;-46
2021/05/09 11:29:41;;;;;;;2.45;1.65;;;25.90;53.20;;;;;;5092883;28;20215;-49
2021/05/09 11:32:12;;;;;;;1.90;1.70;;;26.00;52.70;;;;;;5093494;28;20234;-47
2021/05/09 11:34:49;;;;;;;3.15;1.30;;;26.10;51.40;;;;;;5093181;28;20264;-47
2021/05/09 11:37:16;;;;;;;2.10;0.98;;;26.20;51.30;;;;;;5093338;28;20320;-50
2021/05/09 11:39:43;;;;;;;6.82;6.22;;;26.20;50.90;;;;;;5093356;28;20214;-50
2021/05/09 11:42:12;;;;;;;11.68;10.23;;;26.20;50.80;;;;;;5093379;28;20301;-46
2021/05/09 11:44:42;;;;;;;27.50;24.42;;;26.20;50.60;;;;;;5093146;28;20708;-45
2021/05/09 11:47:12;;;;;;;6.68;5.85;;;26.20;50.30;;;;;;5093067;28;20207;-46
2021/05/09 11:49:40;;;;;;;13.07;11.13;;;26.20;50.40;;;;;;5093105;28;20676;-47
2021/05/09 11:52:14;;;;;;;2.97;2.47;;;26.20;50.30;;;;;;5092925;28;20203;-48
2021/05/09 11:54:45;;;;;;;2.08;1.60;;;26.30;50.10;;;;;;5092958;28;20696;-50
2021/05/09 11:57:13;;;;;;;2.90;2.60;;;26.30;49.90;;;;;;5092943;28;20258;-48
2021/05/09 11:59:43;;;;;;;3.22;2.92;;;26.30;49.80;;;;;;5092976;28;20214;-47
2021/05/09 12:02:22;;;;;;;4.88;3.28;;;26.30;49.90;;;;;;5093206;28;20252;-46
2021/05/09 12:04:51;;;;;;;2.17;1.98;;;26.20;49.40;;;;;;5093418;28;20562;-47
2021/05/09 12:07:19;;;;;;;2.17;1.13;;;26.20;49.30;;;;;;5092937;28;20268;-47
2021/05/09 12:09:52;;;;;;;1.50;1.38;;;26.20;49.00;;;;;;5092858;28;20264;-45
2021/05/09 12:12:20;;;;;;;2.20;2.00;;;26.20;48.40;;;;;;5093303;28;20293;-47
2021/05/09 12:14:52;;;;;;;2.22;1.23;;;26.30;48.40;;;;;;5092378;28;20298;-45
2021/05/09 12:17:24;;;;;;;1.50;1.40;;;26.40;48.10;;;;;;5092525;28;20211;-48
2021/05/09 12:19:53;;;;;;;2.30;1.95;;;26.40;47.80;;;;;;5092480;28;20252;-47
2021/05/09 12:22:21;;;;;;;1.50;1.40;;;26.50;47.40;;;;;;5092755;28;20212;-47
2021/05/09 12:24:56;;;;;;;1.08;0.95;;;26.50;46.90;;;;;;5092186;28;20238;-50
2021/05/09 12:27:24;;;;;;;1.00;0.90;;;26.60;46.50;;;;;;5092215;28;20259;-49
2021/05/09 12:29:54;;;;;;;1.77;1.40;;;26.60;46.30;;;;;;5092476;28;20271;-51
2021/05/09 12:32:24;;;;;;;2.35;1.67;;;26.60;46.20;;;;;;5092360;28;20206;-50
2021/05/09 12:35:04;;;;;;;1.58;1.42;;;26.60;45.90;;;;;;5092162;28;20305;-53
2021/05/09 12:37:31;;;;;;;2.78;2.55;;;26.70;45.90;;;;;;5092463;28;20226;-45
2021/05/09 12:40:19;;;;;;;2.63;2.42;;;26.70;45.90;;;;;;5091748;28;20206;-49
2021/05/09 12:42:57;;;;;;;2.17;1.67;;;26.70;46.20;;;;;;5091586;28;20260;-48
2021/05/09 12:45:39;;;;;;;1.77;1.58;;;26.70;46.50;;;;;;5091807;28;20261;-48
2021/05/09 12:48:12;;;;;;;3.50;2.28;;;26.70;46.00;;;;;;5090933;28;20285;-49
2021/05/09 12:50:57;;;;;;;1.73;1.20;;;26.70;46.40;;;;;;5092271;28;20305;-48
2021/05/09 12:53:39;;;;;;;1.85;1.63;;;26.70;47.00;;;;;;5091940;28;20297;-47
2021/05/09 12:56:13;;;;;;;1.50;1.40;;;26.70;47.50;;;;;;5092132;28;20211;-51